Regent, North Dakota
Current Conditions -  °F | °C
As of 2:53 AM on Saturday 22 Nov 2014 (Local Time) from KHEI Reporting Station
Clear Clear  
Wind Chill: -4°   Ceiling: Unl
Heat Index: -4°   Visibility: 10mi
Dew Point: -7°   Wind: 0mph
Humidity: 81%   Direction: NA
Pressure: 29.62"   Gusts: NA
Location:  46.42°N, 102.56°W
Report Text: KHEI 220953Z AUTO 00000KT 10SM CLR M04/M07 A2962 RMK AO2 SLP053 T10441072
Loading
Personal Weather Stations






























Interactive Weather Map New forecast layout! Learn more

10-Day Weather Forecast

Advertisements
Track Severe Weather on mobile